Time;durP1;ratioP1;P1;durP2;ratioP2;P2;SDS_P1;SDS_P2;PMS_P1;PMS_P2;Temp;Humidity;BMP_temperature;BMP_pressure;BME280_temperature;BME280_humidity;BME280_pressure;Samples;Min_cycle;Max_cycle;Signal;HPM_P1;HPM_P2
2021/07/22 00:01:56;;;;;;;45.03;17.17;;;;;;;20.25;70.43;102249.97;4804606;29;20468;-38
2021/07/22 00:04:23;;;;;;;34.30;16.50;;;;;;;20.20;69.79;102252.31;4803032;29;20066;-38
2021/07/22 00:06:49;;;;;;;36.35;15.80;;;;;;;20.21;69.75;102251.28;4816845;29;20054;-38
2021/07/22 00:09:16;;;;;;;34.15;15.55;;;;;;;20.13;70.41;102247.69;4809300;29;20153;-38
2021/07/22 00:11:44;;;;;;;35.20;16.52;;;;;;;20.08;70.51;102246.56;4805754;29;20132;-38
2021/07/22 00:14:10;;;;;;;36.63;17.00;;;;;;;20.03;70.64;102246.25;4803063;29;20138;-38
2021/07/22 00:16:37;;;;;;;36.30;15.95;;;;;;;19.99;70.85;102251.06;4812266;29;20059;-39
2021/07/22 00:19:03;;;;;;;36.85;17.00;;;;;;;19.90;71.14;102252.97;4811205;29;20074;-39
2021/07/22 00:21:30;;;;;;;33.63;15.73;;;;;;;19.85;70.81;102244.66;4807320;29;20058;-38
2021/07/22 00:23:58;;;;;;;35.72;16.17;;;;;;;19.78;71.62;102246.38;4815318;29;20447;-37
2021/07/22 00:26:24;;;;;;;35.83;15.90;;;;;;;19.71;71.18;102243.53;4811151;29;20065;-37
2021/07/22 00:28:51;;;;;;;39.05;16.77;;;;;;;19.64;71.92;102241.72;4815942;29;20718;-38
2021/07/22 00:31:17;;;;;;;39.28;16.70;;;;;;;19.66;71.33;102239.72;4810231;29;20169;-38
2021/07/22 00:33:43;;;;;;;38.08;16.05;;;;;;;19.62;71.73;102255.22;4816312;29;20050;-38
2021/07/22 00:36:12;;;;;;;36.20;16.20;;;;;;;19.58;71.72;102247.72;4816208;29;20168;-38
2021/07/22 00:38:39;;;;;;;33.92;15.90;;;;;;;19.59;72.27;102244.06;4804142;29;20089;-38
2021/07/22 00:41:10;;;;;;;35.05;15.80;;;;;;;19.58;71.67;102245.06;4814182;29;20582;-38
2021/07/22 00:43:40;;;;;;;35.95;16.63;;;;;;;19.58;71.71;102242.41;4813582;29;20089;-38
2021/07/22 00:46:08;;;;;;;39.13;15.68;;;;;;;19.56;71.87;102243.41;4806091;29;20069;-38
2021/07/22 00:48:35;;;;;;;37.50;17.30;;;;;;;19.51;72.22;102240.44;4810560;29;20058;-38
2021/07/22 00:51:02;;;;;;;36.00;15.88;;;;;;;19.43;73.11;102243.13;4814246;29;20161;-38
2021/07/22 00:53:29;;;;;;;42.05;16.23;;;;;;;19.41;73.13;102238.97;4801525;29;20145;-38
2021/07/22 00:55:55;;;;;;;34.38;15.15;;;;;;;19.36;72.79;102234.97;4806103;29;20687;-38
2021/07/22 00:58:22;;;;;;;38.67;17.38;;;;;;;19.35;73.11;102232.50;4817031;29;20158;-38
2021/07/22 01:00:48;;;;;;;37.13;16.42;;;;;;;19.36;72.91;102231.50;4810763;24;20517;-37
2021/07/22 01:03:15;;;;;;;34.38;14.70;;;;;;;19.35;73.23;102228.00;4815330;29;20107;-37
2021/07/22 01:05:41;;;;;;;38.53;15.43;;;;;;;19.36;73.36;102236.81;4805748;29;20066;-38
2021/07/22 01:08:08;;;;;;;39.83;16.63;;;;;;;19.30;73.27;102224.19;4813401;29;20142;-37
2021/07/22 01:10:34;;;;;;;34.35;15.35;;;;;;;19.30;73.31;102229.50;4811120;29;20082;-38
2021/07/22 01:13:01;;;;;;;40.15;16.42;;;;;;;19.25;73.96;102230.03;4815373;29;20142;-37
2021/07/22 01:15:28;;;;;;;36.60;15.93;;;;;;;19.22;74.26;102227.69;4810205;29;20062;-37
2021/07/22 01:17:54;;;;;;;40.85;16.08;;;;;;;19.17;73.88;102230.06;4789963;29;20217;-37
2021/07/22 01:20:23;;;;;;;37.40;16.42;;;;;;;19.10;74.54;102221.91;4797161;29;21153;-37
2021/07/22 01:22:52;;;;;;;39.85;16.05;;;;;;;19.08;74.45;102223.91;4794762;29;20095;-37
2021/07/22 01:25:19;;;;;;;;;;;;;;;19.05;74.38;102223.41;4803289;29;20138;-38
2021/07/22 01:27:46;;;;;;;38.15;16.17;;;;;;;19.03;74.54;102220.09;4795641;29;19964;-37
2021/07/22 01:30:17;;;;;;;41.33;17.52;;;;;;;18.98;74.64;102217.94;4790971;29;20138;-37
2021/07/22 01:32:44;;;;;;;39.90;16.30;;;;;;;18.94;75.09;102228.06;4791964;29;20065;-39
2021/07/22 01:35:12;;;;;;;42.67;17.00;;;;;;;18.94;75.11;102217.44;4800864;29;20094;-38
2021/07/22 01:37:42;;;;;;;38.95;17.27;;;;;;;18.93;74.81;102223.78;4804308;29;20051;-38
2021/07/22 01:40:09;;;;;;;42.70;16.65;;;;;;;18.93;74.82;102220.25;4794713;29;20059;-39
2021/07/22 01:42:36;;;;;;;45.23;17.60;;;;;;;18.89;75.29;102218.94;4800418;29;20152;-37
2021/07/22 01:45:04;;;;;;;43.03;17.42;;;;;;;18.86;75.08;102224.59;4791646;29;20480;-37
2021/07/22 01:47:33;;;;;;;44.88;16.70;;;;;;;18.85;74.92;102218.44;4796970;29;20086;-37
2021/07/22 01:49:59;;;;;;;49.75;18.85;;;;;;;18.83;75.07;102214.28;4793109;29;20266;-37
2021/07/22 01:52:26;;;;;;;45.88;19.27;;;;;;;18.81;74.99;102214.44;4800146;29;20098;-37
2021/07/22 01:54:52;;;;;;;43.33;18.77;;;;;;;18.74;75.62;102216.94;4800726;29;20138;-37
2021/07/22 01:57:19;;;;;;;51.67;19.60;;;;;;;18.67;76.66;102218.56;4795095;29;20701;-37
2021/07/22 01:59:46;;;;;;;40.70;18.55;;;;;;;18.57;77.34;102212.59;4800030;29;20077;-37
2021/07/22 02:02:12;;;;;;;46.70;19.50;;;;;;;18.54;77.18;102218.22;4793597;29;20146;-38
2021/07/22 02:04:40;;;;;;;46.35;19.50;;;;;;;18.52;77.45;102214.91;4800353;29;20054;-38
2021/07/22 02:07:09;;;;;;;49.55;18.75;;;;;;;18.45;77.31;102220.06;4793760;29;20120;-37
2021/07/22 02:09:35;;;;;;;46.72;18.63;;;;;;;18.44;77.21;102215.72;4796667;29;20143;-37
2021/07/22 02:12:02;;;;;;;49.42;19.35;;;;;;;18.44;77.48;102217.56;4793346;29;20094;-37
2021/07/22 02:14:29;;;;;;;43.20;17.92;;;;;;;18.43;77.01;102215.91;4799836;29;20151;-37
2021/07/22 02:16:55;;;;;;;50.30;19.55;;;;;;;18.38;77.80;102214.59;4799216;29;20142;-37
2021/07/22 02:19:22;;;;;;;43.10;18.90;;;;;;;18.37;77.29;102218.22;4794242;29;20173;-38
2021/07/22 02:21:48;;;;;;;48.20;18.27;;;;;;;18.39;77.51;102226.03;4796261;29;20237;-38
2021/07/22 02:24:15;;;;;;;45.42;18.63;;;;;;;18.33;77.78;102221.38;4791831;29;20523;-38
2021/07/22 02:26:42;;;;;;;50.92;19.05;;;;;;;18.35;78.28;102222.06;4800609;29;20098;-38
2021/07/22 02:29:09;;;;;;;46.30;18.20;;;;;;;18.33;78.42;102218.72;4811201;29;20141;-37
2021/07/22 02:31:35;;;;;;;47.70;19.10;;;;;;;18.30;78.58;102221.69;4804516;29;20674;-37
2021/07/22 02:34:02;;;;;;;47.05;18.70;;;;;;;18.30;79.00;102221.69;4795857;29;20145;-37
2021/07/22 02:36:29;;;;;;;45.83;18.52;;;;;;;18.26;79.08;102217.72;4790592;29;20059;-38
2021/07/22 02:38:55;;;;;;;50.83;19.35;;;;;;;18.29;78.45;102215.56;4801193;29;20749;-38
2021/07/22 02:41:22;;;;;;;47.13;19.30;;;;;;;18.32;78.68;102227.69;4803461;29;20095;-37
2021/07/22 02:43:49;;;;;;;52.83;20.38;;;;;;;18.35;78.43;102222.88;4799401;29;20619;-38
2021/07/22 02:46:15;;;;;;;59.67;22.08;;;;;;;18.41;79.27;102229.34;4794067;29;20086;-38
2021/07/22 02:48:41;;;;;;;59.83;20.92;;;;;;;18.46;78.93;102229.69;4795855;29;20154;-38
2021/07/22 02:51:08;;;;;;;55.95;22.63;;;;;;;18.48;78.70;102225.03;4795433;29;20093;-37
2021/07/22 02:53:35;;;;;;;55.53;21.92;;;;;;;18.52;78.65;102233.50;4804553;29;20485;-38
2021/07/22 02:56:03;;;;;;;55.67;20.77;;;;;;;18.51;78.27;102234.53;4814167;29;20150;-37
2021/07/22 02:58:30;;;;;;;47.37;20.97;;;;;;;18.50;78.82;102230.19;4794288;29;20073;-38
2021/07/22 03:00:56;;;;;;;58.30;22.25;;;;;;;18.49;78.92;102232.03;4796407;29;20391;-37
2021/07/22 03:03:23;;;;;;;56.58;22.58;;;;;;;18.49;78.83;102228.53;4788660;29;20062;-37
2021/07/22 03:05:50;;;;;;;60.40;22.48;;;;;;;18.48;78.72;102233.00;4811237;29;20115;-38
2021/07/22 03:08:16;;;;;;;65.07;23.73;;;;;;;18.48;78.49;102233.00;4794414;29;20578;-37
2021/07/22 03:10:43;;;;;;;61.17;22.73;;;;;;;18.48;79.40;102227.69;4798666;29;20097;-38
2021/07/22 03:13:09;;;;;;;58.80;22.98;;;;;;;18.52;79.14;102223.72;4797844;29;20452;-38
2021/07/22 03:15:36;;;;;;;60.10;22.45;;;;;;;18.47;80.21;102233.19;4789896;29;20102;-38
2021/07/22 03:18:02;;;;;;;53.67;21.70;;;;;;;18.48;79.32;102230.34;4794996;29;20149;-38
2021/07/22 03:20:29;;;;;;;64.80;23.60;;;;;;;18.51;79.14;102224.72;4794060;29;20097;-38
2021/07/22 03:22:55;;;;;;;63.80;24.73;;;;;;;18.53;79.49;102227.22;4798426;29;20463;-37
2021/07/22 03:25:21;;;;;;;68.30;24.67;;;;;;;18.56;79.15;102225.06;4793198;29;20086;-38
2021/07/22 03:27:48;;;;;;;60.40;23.83;;;;;;;18.56;79.39;102230.38;4795384;29;20046;-38
2021/07/22 03:30:15;;;;;;;68.45;25.48;;;;;;;18.56;79.44;102234.84;4790871;29;20181;-37
2021/07/22 03:32:41;;;;;;;61.03;24.27;;;;;;;18.54;79.27;102232.38;4792483;29;20574;-37
2021/07/22 03:35:09;;;;;;;68.47;25.15;;;;;;;18.56;79.02;102226.88;4798424;29;20455;-37
2021/07/22 03:37:36;;;;;;;66.00;24.30;;;;;;;18.51;78.94;102223.91;4793231;29;20135;-38
2021/07/22 03:40:03;;;;;;;61.10;24.02;;;;;;;18.49;79.31;102229.38;4797497;29;20094;-38
2021/07/22 03:42:31;;;;;;;66.03;25.70;;;;;;;18.47;79.36;102223.38;4787081;29;20098;-38
2021/07/22 03:44:57;;;;;;;64.15;24.10;;;;;;;18.45;79.49;102232.53;4797703;29;20198;-37
2021/07/22 03:47:24;;;;;;;63.17;24.10;;;;;;;18.40;79.86;102224.19;4801472;29;20472;-38
2021/07/22 03:49:50;;;;;;;56.95;24.15;;;;;;;18.41;79.99;102232.00;4792793;29;20538;-37
2021/07/22 03:52:17;;;;;;;61.45;24.13;;;;;;;18.43;79.39;102226.53;4797743;29;20105;-37
2021/07/22 03:54:44;;;;;;;58.53;24.25;;;;;;;18.40;79.55;102229.50;4789709;29;20097;-37
2021/07/22 03:57:10;;;;;;;63.97;25.27;;;;;;;18.38;79.81;102229.69;4794644;29;20138;-38
2021/07/22 03:59:37;;;;;;;55.13;24.88;;;;;;;18.33;79.78;102229.34;4793344;29;20598;-38
2021/07/22 04:02:04;;;;;;;60.03;24.05;;;;;;;18.32;80.00;102228.50;4800972;29;20145;-38
2021/07/22 04:04:30;;;;;;;59.50;25.20;;;;;;;18.32;79.85;102233.00;4798615;29;20060;-38
2021/07/22 04:06:57;;;;;;;57.85;22.90;;;;;;;18.29;80.11;102228.84;4798843;29;20050;-38
2021/07/22 04:09:23;;;;;;;57.10;23.02;;;;;;;18.27;80.31;102225.53;4797043;29;20059;-38
2021/07/22 04:11:50;;;;;;;57.47;23.73;;;;;;;18.29;79.90;102223.53;4787147;29;20141;-39
2021/07/22 04:14:17;;;;;;;54.40;22.85;;;;;;;18.26;80.57;102223.84;4799630;29;20161;-38
2021/07/22 04:16:45;;;;;;;48.15;20.50;;;;;;;18.24;80.22;102227.66;4795755;29;20059;-38
2021/07/22 04:19:11;;;;;;;54.70;23.80;;;;;;;18.25;80.13;102232.81;4800695;29;20407;-38
2021/07/22 04:21:37;;;;;;;54.50;23.73;;;;;;;18.24;80.34;102223.19;4789141;29;20082;-38
2021/07/22 04:24:04;;;;;;;52.15;23.48;;;;;;;18.27;79.91;102224.66;4793509;29;20101;-38
2021/07/22 04:26:31;;;;;;;43.95;21.27;;;;;;;18.26;80.28;102223.03;4798840;29;20162;-38
2021/07/22 04:28:57;;;;;;;41.58;21.00;;;;;;;18.27;80.26;102222.00;4792922;29;20098;-38
2021/07/22 04:31:24;;;;;;;50.25;22.83;;;;;;;18.27;80.15;102222.00;4797886;29;20541;-38
2021/07/22 04:33:50;;;;;;;40.60;20.98;;;;;;;18.28;79.65;102234.31;4804423;29;20047;-38
2021/07/22 04:36:17;;;;;;;44.35;20.23;;;;;;;18.26;80.58;102226.50;4803285;29;20145;-37
2021/07/22 04:38:43;;;;;;;42.97;20.70;;;;;;;18.26;80.33;102231.81;4792437;29;20142;-38
2021/07/22 04:41:10;;;;;;;46.30;21.77;;;;;;;18.29;80.22;102233.34;4797378;29;20459;-38
2021/07/22 04:43:36;;;;;;;42.78;20.73;;;;;;;18.30;79.81;102237.63;4797935;29;20051;-38
2021/07/22 04:46:04;;;;;;;44.28;21.55;;;;;;;18.30;80.14;102233.16;4794033;29;20097;-38
2021/07/22 04:48:32;;;;;;;41.03;20.70;;;;;;;18.31;79.84;102234.81;4797821;29;20135;-38
2021/07/22 04:51:05;;;;;;;39.33;19.80;;;;;;;18.31;80.00;102234.81;4788107;29;20173;-38
2021/07/22 04:53:34;;;;;;;38.65;19.40;;;;;;;18.33;79.52;102232.00;4801302;29;20146;-38
2021/07/22 04:56:00;;;;;;;41.50;20.10;;;;;;;18.34;79.76;102229.16;4795405;29;20162;-38
2021/07/22 04:58:27;;;;;;;35.38;20.23;;;;;;;18.34;79.89;102223.84;4801816;29;20067;-38
2021/07/22 05:00:54;;;;;;;34.15;18.50;;;;;;;18.37;79.74;102238.66;4795064;29;20054;-38
2021/07/22 05:03:20;;;;;;;41.28;21.45;;;;;;;18.34;80.21;102234.47;4796976;29;20061;-38
2021/07/22 05:05:47;;;;;;;34.88;18.75;;;;;;;18.36;79.97;102237.81;4796344;29;20479;-38
2021/07/22 05:08:13;;;;;;;37.92;19.90;;;;;;;18.35;80.43;102236.16;4795052;29;20169;-38
2021/07/22 05:10:40;;;;;;;35.22;19.40;;;;;;;18.33;80.00;102232.84;4803705;29;20085;-38
2021/07/22 05:13:07;;;;;;;36.13;19.42;;;;;;;18.36;80.84;102245.78;4800628;29;20150;-38
2021/07/22 05:15:33;;;;;;;34.05;19.13;;;;;;;18.37;80.73;102236.81;4799529;29;20085;-38
2021/07/22 05:18:00;;;;;;;37.80;19.25;;;;;;;18.38;81.04;102240.31;4790238;29;20162;-38
2021/07/22 05:20:26;;;;;;;33.88;18.63;;;;;;;18.42;80.81;102249.59;4801099;29;20566;-38
2021/07/22 05:22:52;;;;;;;33.28;18.23;;;;;;;18.42;81.09;102235.50;4800504;29;20058;-38
2021/07/22 05:25:19;;;;;;;33.72;19.42;;;;;;;18.45;81.07;102245.81;4797302;29;20054;-38
2021/07/22 05:27:45;;;;;;;37.65;18.52;;;;;;;18.50;80.49;102249.63;4802220;29;20144;-38
2021/07/22 05:30:12;;;;;;;32.70;18.08;;;;;;;18.55;80.48;102254.44;4794588;29;20443;-38
2021/07/22 05:32:42;;;;;;;32.20;18.02;;;;;;;18.59;80.06;102258.44;4798198;29;20078;-37
2021/07/22 05:35:11;;;;;;;32.05;17.63;;;;;;;18.62;79.74;102252.81;4784656;29;20134;-38
2021/07/22 05:37:37;;;;;;;36.20;18.05;;;;;;;18.66;79.28;102251.47;4809232;29;20051;-38
2021/07/22 05:40:04;;;;;;;32.00;18.25;;;;;;;18.69;79.05;102252.97;4808755;29;20467;-38
2021/07/22 05:42:30;;;;;;;27.83;17.38;;;;;;;18.73;78.59;102252.47;4802096;29;20055;-37
2021/07/22 05:44:57;;;;;;;32.17;17.27;;;;;;;18.74;79.00;102246.16;4796356;29;20142;-38
2021/07/22 05:47:23;;;;;;;33.83;17.88;;;;;;;18.81;78.84;102253.50;4793679;29;20898;-38
2021/07/22 05:49:50;;;;;;;30.40;18.30;;;;;;;18.80;78.62;102255.34;4800640;29;20075;-38
2021/07/22 05:52:16;;;;;;;33.17;18.13;;;;;;;18.78;79.19;102263.44;4794549;29;20086;-38
2021/07/22 05:54:43;;;;;;;31.30;18.05;;;;;;;18.82;79.00;102263.13;4804478;29;20551;-37
2021/07/22 05:57:10;;;;;;;31.73;17.35;;;;;;;18.85;79.66;102257.50;4798038;29;20142;-38
2021/07/22 05:59:36;;;;;;;29.95;18.55;;;;;;;18.89;79.10;102258.81;4797933;29;20519;-38
2021/07/22 06:02:04;;;;;;;27.45;17.73;;;;;;;18.89;78.56;102261.47;4803944;29;20062;-38
2021/07/22 06:04:31;;;;;;;27.70;16.17;;;;;;;18.92;78.13;102253.19;4795053;29;20050;-38
2021/07/22 06:06:58;;;;;;;25.80;16.83;;;;;;;18.92;78.03;102247.84;4800327;29;20105;-38
2021/07/22 06:09:24;;;;;;;29.10;17.42;;;;;;;18.92;78.16;102247.84;4794503;29;20330;-37
2021/07/22 06:11:51;;;;;;;31.58;18.33;;;;;;;18.94;78.61;102252.00;4798873;29;20540;-36
2021/07/22 06:14:17;;;;;;;30.05;17.30;;;;;;;18.97;78.37;102256.16;4795174;29;20157;-36
2021/07/22 06:16:44;;;;;;;33.58;19.58;;;;;;;18.95;78.74;102253.69;4803556;29;20054;-37
2021/07/22 06:19:10;;;;;;;29.58;18.35;;;;;;;19.01;78.19;102256.66;4799980;29;20066;-36
2021/07/22 06:21:37;;;;;;;26.60;16.63;;;;;;;19.05;78.37;102252.66;4789441;29;20150;-37
2021/07/22 06:24:04;;;;;;;24.98;16.58;;;;;;;19.08;78.56;102249.66;4793020;29;20238;-37
2021/07/22 06:26:34;;;;;;;28.27;17.05;;;;;;;19.11;78.65;102255.50;4790554;29;20518;-37
2021/07/22 06:29:02;;;;;;;30.85;17.50;;;;;;;19.15;78.28;102254.16;4799659;29;20177;-37
2021/07/22 06:31:29;;;;;;;23.92;15.57;;;;;;;19.20;77.26;102253.63;4791037;29;20517;-36
2021/07/22 06:33:58;;;;;;;26.10;16.35;;;;;;;19.24;77.30;102248.81;4799002;29;20637;-36
2021/07/22 06:36:25;;;;;;;27.20;16.77;;;;;;;19.29;77.26;102252.63;4795192;29;20510;-37
2021/07/22 06:38:51;;;;;;;26.27;15.40;;;;;;;19.36;76.66;102250.09;4794192;29;20146;-37
2021/07/22 06:41:20;;;;;;;28.88;16.17;;;;;;;19.38;77.05;102252.59;4798719;29;20415;-37
2021/07/22 06:43:47;;;;;;;27.45;15.02;;;;;;;19.45;75.05;102251.75;4797662;29;20058;-36
2021/07/22 06:46:14;;;;;;;26.00;16.85;;;;;;;19.46;76.08;102250.75;4799142;29;20054;-38
2021/07/22 06:48:41;;;;;;;26.75;16.38;;;;;;;19.51;76.06;102250.25;4787263;29;20053;-36
2021/07/22 06:51:08;;;;;;;25.92;15.50;;;;;;;19.52;75.90;102255.41;4797769;29;20069;-36
2021/07/22 06:53:34;;;;;;;21.35;13.88;;;;;;;19.59;75.21;102252.06;4799687;29;20119;-37
2021/07/22 06:56:05;;;;;;;27.00;15.13;;;;;;;19.62;75.38;102252.56;4793191;29;20557;-37
2021/07/22 06:58:31;;;;;;;26.13;14.93;;;;;;;19.68;75.19;102251.88;4798965;29;20059;-38
2021/07/22 07:00:58;;;;;;;26.90;15.88;;;;;;;19.73;75.35;102244.19;4791721;29;20130;-38
2021/07/22 07:03:24;;;;;;;24.63;15.52;;;;;;;19.83;75.26;102251.97;4797847;29;20155;-36
2021/07/22 07:05:52;;;;;;;25.40;15.07;;;;;;;19.91;74.97;102251.13;4791971;29;20058;-36
2021/07/22 07:08:18;;;;;;;22.67;14.57;;;;;;;19.93;74.98;102244.66;4797555;29;20124;-37
2021/07/22 07:10:45;;;;;;;21.00;14.52;;;;;;;19.95;73.94;102249.78;4791912;29;20301;-36
2021/07/22 07:13:12;;;;;;;20.48;13.40;;;;;;;20.03;73.73;102247.09;4792710;29;20101;-36
2021/07/22 07:15:39;;;;;;;22.45;13.52;;;;;;;20.12;73.52;102250.53;4794527;29;20222;-37
2021/07/22 07:18:05;;;;;;;21.67;12.98;;;;;;;20.21;73.94;102251.28;4793980;29;20138;-37
2021/07/22 07:20:32;;;;;;;25.10;14.35;;;;;;;20.28;72.51;102250.41;4800473;29;20063;-37
2021/07/22 07:22:59;;;;;;;26.13;14.50;;;;;;;20.32;72.59;102258.91;4793135;29;20144;-37
2021/07/22 07:25:25;;;;;;;20.02;13.32;;;;;;;20.41;72.91;102257.03;4795771;29;20241;-37
2021/07/22 07:27:52;;;;;;;26.92;13.15;;;;;;;20.43;70.63;102247.03;4798881;29;20062;-37
2021/07/22 07:30:20;;;;;;;22.45;12.55;;;;;;;20.57;70.90;102256.91;4800264;29;20134;-37
2021/07/22 07:32:51;;;;;;;21.37;12.07;;;;;;;20.73;71.09;102262.13;4798924;29;20062;-37
2021/07/22 07:35:18;;;;;;;23.80;13.80;;;;;;;20.88;69.99;102264.03;4796119;29;20298;-37
2021/07/22 07:37:44;;;;;;;22.13;13.15;;;;;;;21.00;69.85;102261.75;4817264;29;20058;-37
2021/07/22 07:40:12;;;;;;;20.50;12.68;;;;;;;21.10;68.11;102270.34;4789858;29;20149;-36
2021/07/22 07:42:38;;;;;;;22.97;11.63;;;;;;;21.25;67.42;102270.38;4799134;29;20134;-37
2021/07/22 07:45:06;;;;;;;21.83;12.57;;;;;;;21.33;66.69;102275.63;4793595;29;20146;-36
2021/07/22 07:47:33;;;;;;;19.20;11.40;;;;;;;21.38;66.99;102275.06;4801434;29;20141;-37
2021/07/22 07:49:59;;;;;;;21.63;11.80;;;;;;;21.48;66.91;102275.66;4798705;29;20483;-37
2021/07/22 07:52:29;;;;;;;17.65;11.20;;;;;;;21.55;66.16;102270.41;4787908;29;20090;-37
2021/07/22 07:54:56;;;;;;;20.25;13.32;;;;;;;21.64;65.51;102269.28;4794833;29;20167;-37
2021/07/22 07:57:23;;;;;;;24.73;11.40;;;;;;;21.72;65.69;102278.06;4792924;29;20051;-37
2021/07/22 07:59:49;;;;;;;20.60;11.98;;;;;;;21.79;65.54;102271.97;4798173;29;20531;-37
2021/07/22 08:02:16;;;;;;;22.05;12.38;;;;;;;21.85;65.20;102268.53;4791978;29;20186;-37
2021/07/22 08:04:43;;;;;;;21.17;13.63;;;;;;;21.89;64.78;102272.50;4798546;29;20073;-38
2021/07/22 08:07:10;;;;;;;20.73;14.45;;;;;;;21.96;64.39;102269.94;4788023;29;20062;-38
2021/07/22 08:09:37;;;;;;;24.92;14.85;;;;;;;21.91;64.63;102274.00;4795299;29;20095;-37
2021/07/22 08:12:03;;;;;;;19.00;12.68;;;;;;;21.89;64.87;102262.66;4804825;29;20059;-37
2021/07/22 08:14:36;;;;;;;22.75;14.98;;;;;;;21.91;64.89;102267.78;4792993;29;20050;-37
2021/07/22 08:17:06;;;;;;;22.63;15.13;;;;;;;21.91;64.63;102267.78;4790286;29;20457;-37
2021/07/22 08:19:33;;;;;;;19.63;14.88;;;;;;;21.98;64.16;102270.56;4789331;29;20054;-37
2021/07/22 08:22:00;;;;;;;24.00;15.93;;;;;;;22.09;64.16;102270.91;4792641;29;20094;-37
2021/07/22 08:24:27;;;;;;;25.57;14.50;;;;;;;22.25;63.33;102272.56;4792185;29;20054;-38
2021/07/22 08:26:54;;;;;;;19.38;12.75;;;;;;;22.32;61.80;102272.63;4799898;29;20578;-38
2021/07/22 08:29:20;;;;;;;17.55;11.73;;;;;;;22.49;61.17;102273.22;4802284;29;20157;-38
2021/07/22 08:31:46;;;;;;;20.35;11.65;;;;;;;22.53;60.99;102273.66;4794468;29;20146;-38
2021/07/22 08:34:15;;;;;;;17.80;11.55;;;;;;;22.56;58.99;102262.56;4800775;29;20062;-41
2021/07/22 08:36:42;;;;;;;19.48;11.82;;;;;;;22.63;59.40;102266.16;4792158;29;20542;-38
2021/07/22 08:39:09;;;;;;;23.20;12.52;;;;;;;22.76;59.71;102262.75;4805182;29;20115;-39
2021/07/22 08:41:36;;;;;;;19.45;11.48;;;;;;;22.77;58.08;102257.22;4795464;29;20090;-38
2021/07/22 08:44:06;;;;;;;17.40;11.45;;;;;;;23.01;59.10;102263.16;4801112;29;20094;-39
2021/07/22 08:46:34;;;;;;;20.73;13.07;;;;;;;22.98;57.96;102258.22;4793973;29;20177;-37
2021/07/22 08:49:00;;;;;;;17.90;11.03;;;;;;;23.08;59.17;102261.41;4795384;29;20114;-39
2021/07/22 08:51:27;;;;;;;16.95;12.05;;;;;;;23.09;57.99;102263.03;4799376;29;20158;-38
2021/07/22 08:53:53;;;;;;;18.50;13.45;;;;;;;23.15;57.90;102266.78;4798424;29;20149;-39
2021/07/22 08:56:25;;;;;;;18.13;13.35;;;;;;;23.16;57.38;102261.25;4801112;29;20051;-39
2021/07/22 08:58:52;;;;;;;17.67;13.30;;;;;;;23.15;57.56;102264.13;4795972;29;20095;-38
2021/07/22 09:01:21;;;;;;;19.17;13.20;;;;;;;23.23;56.76;102264.00;4802003;29;20088;-39
2021/07/22 09:03:47;;;;;;;17.98;12.15;;;;;;;23.19;56.78;102257.34;4795956;29;20046;-38
2021/07/22 09:06:24;;;;;;;20.42;12.77;;;;;;;23.31;56.30;102261.16;4809979;29;20051;-38
2021/07/22 09:08:51;;;;;;;17.88;12.10;;;;;;;23.36;55.10;102261.38;4798870;29;20511;-37
2021/07/22 09:11:17;;;;;;;16.85;11.32;;;;;;;23.56;55.09;102256.16;4804236;29;20142;-38
2021/07/22 09:13:44;;;;;;;18.02;11.32;;;;;;;23.62;54.55;102255.34;4803321;29;20478;-38
2021/07/22 09:16:10;;;;;;;14.43;10.98;;;;;;;23.73;55.01;102255.81;4787230;29;20141;-38
2021/07/22 09:18:43;;;;;;;12.65;10.50;;;;;;;23.80;55.19;102262.06;4799747;29;20059;-38
2021/07/22 09:21:24;;;;;;;17.95;11.35;;;;;;;23.82;53.51;102262.69;4797939;29;20146;-38
2021/07/22 09:24:05;;;;;;;15.60;10.10;;;;;;;23.90;53.87;102259.00;4799586;29;20453;-37
2021/07/22 09:29:27;;;;;;;15.60;11.15;;;;;;;23.98;52.65;102265.00;5009324;24;20104;-37
2021/07/22 09:32:03;;;;;;;18.83;10.45;;;;;;;24.04;51.65;102263.38;4795237;29;20160;-38
2021/07/22 09:34:30;;;;;;;15.57;9.82;;;;;;;24.14;52.24;102265.69;4801862;29;20086;-38
2021/07/22 09:37:07;;;;;;;15.40;9.83;;;;;;;24.23;52.47;102264.47;4801520;29;20086;-38
2021/07/22 09:39:36;;;;;;;12.77;9.23;;;;;;;24.25;51.30;102265.91;4798668;29;20077;-38
2021/07/22 09:42:04;;;;;;;15.43;9.68;;;;;;;24.20;51.43;102260.31;4795563;29;20086;-38
2021/07/22 09:44:39;;;;;;;13.25;9.90;;;;;;;24.12;51.29;102265.88;4795810;29;20059;-38
2021/07/22 09:47:07;;;;;;;15.15;10.02;;;;;;;24.11;51.64;102266.94;4801016;29;20086;-38
2021/07/22 09:49:34;;;;;;;11.25;8.50;;;;;;;24.17;51.91;102271.47;4796822;29;20548;-38
2021/07/22 09:52:03;;;;;;;9.80;7.38;;;;;;;24.25;51.88;102271.28;4800776;29;20137;-38
2021/07/22 09:54:35;;;;;;;12.98;8.18;;;;;;;24.30;51.77;102267.16;4798593;29;20149;-38
2021/07/22 09:57:03;;;;;;;12.65;7.95;;;;;;;24.35;50.56;102270.91;4811474;29;20149;-38
2021/07/22 09:59:30;;;;;;;15.45;8.20;;;;;;;24.39;50.32;102265.97;4799542;29;20112;-38
2021/07/22 10:02:03;;;;;;;12.90;8.43;;;;;;;24.39;49.08;102266.78;4798694;29;20080;-38
2021/07/22 10:04:31;;;;;;;12.07;7.85;;;;;;;24.51;49.56;102263.53;4801517;29;20085;-38
2021/07/22 10:07:01;;;;;;;15.00;9.05;;;;;;;24.59;49.32;102263.31;4794515;29;20085;-38
2021/07/22 10:09:32;;;;;;;15.05;8.98;;;;;;;24.98;49.91;102259.81;4800797;29;20063;-38
2021/07/22 10:12:01;;;;;;;14.07;8.40;;;;;;;25.07;47.95;102255.06;4794068;29;20539;-38
2021/07/22 10:14:28;;;;;;;11.85;8.23;;;;;;;25.04;49.29;102253.59;4800572;29;20138;-38
2021/07/22 10:16:57;;;;;;;14.30;7.82;;;;;;;24.89;48.24;102261.06;4793303;29;20145;-38
2021/07/22 10:19:25;;;;;;;14.60;8.05;;;;;;;24.81;49.62;102251.34;4793253;29;20495;-38
2021/07/22 10:21:51;;;;;;;12.57;8.10;;;;;;;24.78;50.83;102259.81;4798773;29;20258;-38
2021/07/22 10:24:20;;;;;;;10.32;8.10;;;;;;;24.72;51.05;102254.44;4793376;29;20118;-38
2021/07/22 10:26:47;;;;;;;16.40;8.45;;;;;;;24.63;50.99;102253.84;4799821;29;20142;-38
2021/07/22 10:29:13;;;;;;;12.65;8.38;;;;;;;24.69;50.89;102262.91;4793886;29;20174;-38
2021/07/22 10:31:44;;;;;;;16.83;8.18;;;;;;;24.81;50.10;102254.03;4795337;29;20146;-38
2021/07/22 10:34:14;;;;;;;15.35;8.95;;;;;;;25.14;48.87;102260.41;4790298;29;20059;-38
2021/07/22 10:36:44;;;;;;;13.82;8.25;;;;;;;25.30;49.00;102264.56;4798649;29;20054;-38
2021/07/22 10:39:11;;;;;;;13.95;8.68;;;;;;;25.37;48.27;102258.13;4794209;29;20063;-38
2021/07/22 10:41:40;;;;;;;13.90;8.88;;;;;;;25.51;47.17;102253.56;4798614;29;20059;-38
2021/07/22 10:44:15;;;;;;;15.18;8.60;;;;;;;25.55;48.35;102252.09;4790433;29;20062;-38
2021/07/22 10:47:00;;;;;;;12.93;8.23;;;;;;;25.50;47.42;102251.91;4787707;29;20062;-38
2021/07/22 10:49:38;;;;;;;14.23;7.88;;;;;;;25.55;47.93;102248.59;4792266;29;20150;-39
2021/07/22 10:52:05;;;;;;;11.20;8.65;;;;;;;25.53;46.86;102247.97;4791605;29;20120;-39
2021/07/22 10:54:40;;;;;;;12.15;8.27;;;;;;;25.70;47.84;102246.47;4800099;29;20203;-39
2021/07/22 10:57:27;;;;;;;10.77;7.80;;;;;;;25.68;47.09;102240.47;4792849;29;20183;-39
2021/07/22 10:59:56;;;;;;;11.50;7.88;;;;;;;25.70;47.37;102235.72;4794544;29;20178;-39
2021/07/22 11:02:43;;;;;;;11.32;7.47;;;;;;;25.75;47.21;102237.75;4790256;29;20057;-38
2021/07/22 11:05:38;;;;;;;12.35;8.40;;;;;;;25.98;46.48;102229.19;4797844;29;20135;-39
2021/07/22 11:08:21;;;;;;;11.40;7.38;;;;;;;26.08;46.41;102234.09;4790449;29;20433;-40
2021/07/22 11:10:54;;;;;;;11.75;8.48;;;;;;;26.14;46.71;102239.44;4797686;29;20070;-39
2021/07/22 11:13:33;;;;;;;11.95;8.68;;;;;;;26.19;45.97;102238.81;4792325;29;20111;-39
2021/07/22 11:16:01;;;;;;;11.75;8.50;;;;;;;26.29;45.97;102232.94;4798163;29;20498;-39
2021/07/22 11:18:40;;;;;;;12.13;8.63;;;;;;;26.43;46.05;102231.81;4799217;29;20543;-39